Terminal Aerodrome Forecast
Issued by NWS

Home | Current Version | Previous Version | Text Only | Print | Product List | Glossary On
Versions: 1 2 3 4 5 6 7 8 9 10 11 12 13 14 15 16 17 18
909
FTUS44 KSJT 311135
TAFSOA
TAF
KSOA 311135Z 3112/0112 15006KT P6SM BKN025
     FM311800 16011KT P6SM VCTS BKN040CB BKN250
     FM010600 13006KT P6SM VCSH BKN040=

USA.gov is the U.S. government's official web portal to all federal, state and local government web resources and services.